sensor_id;sensor_type;location;lat;lon;timestamp;P1;durP1;ratioP1;P2;durP2;ratioP2
47659;SDS011;33403;43.608;1.458;2023-04-01T00:00:16;18.77;;;4.05;;
47659;SDS011;33403;43.608;1.458;2023-04-01T00:02:42;20.25;;;4.22;;
47659;SDS011;33403;43.608;1.458;2023-04-01T00:05:08;18.20;;;3.95;;
47659;SDS011;33403;43.608;1.458;2023-04-01T00:07:35;20.42;;;3.90;;
47659;SDS011;33403;43.608;1.458;2023-04-01T00:10:05;15.43;;;3.45;;
47659;SDS011;33403;43.608;1.458;2023-04-01T00:12:33;23.60;;;4.40;;
47659;SDS011;33403;43.608;1.458;2023-04-01T00:14:58;19.00;;;4.20;;
47659;SDS011;33403;43.608;1.458;2023-04-01T00:17:24;20.00;;;3.65;;
47659;SDS011;33403;43.608;1.458;2023-04-01T00:19:51;23.25;;;3.92;;
47659;SDS011;33403;43.608;1.458;2023-04-01T00:22:16;19.85;;;3.53;;
47659;SDS011;33403;43.608;1.458;2023-04-01T00:24:42;26.35;;;4.13;;
47659;SDS011;33403;43.608;1.458;2023-04-01T00:27:08;23.58;;;4.00;;
47659;SDS011;33403;43.608;1.458;2023-04-01T00:29:34;16.40;;;3.53;;
47659;SDS011;33403;43.608;1.458;2023-04-01T00:32:00;22.50;;;4.22;;
47659;SDS011;33403;43.608;1.458;2023-04-01T00:34:26;13.88;;;3.55;;
47659;SDS011;33403;43.608;1.458;2023-04-01T00:36:52;22.55;;;4.05;;
47659;SDS011;33403;43.608;1.458;2023-04-01T00:39:21;22.27;;;4.28;;
47659;SDS011;33403;43.608;1.458;2023-04-01T00:41:46;22.02;;;3.65;;
47659;SDS011;33403;43.608;1.458;2023-04-01T00:44:17;18.25;;;3.72;;
47659;SDS011;33403;43.608;1.458;2023-04-01T00:46:47;24.02;;;3.85;;
47659;SDS011;33403;43.608;1.458;2023-04-01T00:49:13;20.40;;;4.57;;
47659;SDS011;33403;43.608;1.458;2023-04-01T00:51:41;23.33;;;4.50;;
47659;SDS011;33403;43.608;1.458;2023-04-01T00:54:08;19.73;;;3.95;;
47659;SDS011;33403;43.608;1.458;2023-04-01T00:56:35;27.42;;;4.28;;
47659;SDS011;33403;43.608;1.458;2023-04-01T00:59:11;18.67;;;3.78;;
47659;SDS011;33403;43.608;1.458;2023-04-01T01:01:40;27.45;;;4.43;;
47659;SDS011;33403;43.608;1.458;2023-04-01T01:04:06;20.20;;;3.78;;
47659;SDS011;33403;43.608;1.458;2023-04-01T01:07:07;21.98;;;4.63;;
47659;SDS011;33403;43.608;1.458;2023-04-01T01:13:01;24.63;;;4.63;;
47659;SDS011;33403;43.608;1.458;2023-04-01T01:15:24;23.63;;;4.28;;
47659;SDS011;33403;43.608;1.458;2023-04-01T01:20:44;21.48;;;4.13;;
47659;SDS011;33403;43.608;1.458;2023-04-01T01:35:16;17.55;;;3.88;;
47659;SDS011;33403;43.608;1.458;2023-04-01T01:37:49;25.45;;;4.28;;
47659;SDS011;33403;43.608;1.458;2023-04-01T01:40:19;22.85;;;4.45;;
47659;SDS011;33403;43.608;1.458;2023-04-01T01:42:47;22.77;;;4.20;;
47659;SDS011;33403;43.608;1.458;2023-04-01T01:45:18;18.23;;;3.78;;
47659;SDS011;33403;43.608;1.458;2023-04-01T01:47:46;23.25;;;3.65;;
47659;SDS011;33403;43.608;1.458;2023-04-01T01:50:14;22.05;;;3.30;;
47659;SDS011;33403;43.608;1.458;2023-04-01T01:52:41;20.02;;;3.78;;
47659;SDS011;33403;43.608;1.458;2023-04-01T01:58:17;18.67;;;3.58;;
47659;SDS011;33403;43.608;1.458;2023-04-01T02:01:00;22.33;;;3.80;;
47659;SDS011;33403;43.608;1.458;2023-04-01T02:03:31;25.55;;;3.97;;
47659;SDS011;33403;43.608;1.458;2023-04-01T02:06:00;23.92;;;4.68;;
47659;SDS011;33403;43.608;1.458;2023-04-01T02:08:35;22.60;;;4.45;;
47659;SDS011;33403;43.608;1.458;2023-04-01T02:11:06;24.13;;;4.43;;
47659;SDS011;33403;43.608;1.458;2023-04-01T02:13:39;23.35;;;4.32;;
47659;SDS011;33403;43.608;1.458;2023-04-01T02:16:23;21.52;;;3.92;;
47659;SDS011;33403;43.608;1.458;2023-04-01T02:18:56;22.40;;;4.00;;
47659;SDS011;33403;43.608;1.458;2023-04-01T02:21:26;23.20;;;4.05;;
47659;SDS011;33403;43.608;1.458;2023-04-01T02:23:55;22.83;;;4.03;;
47659;SDS011;33403;43.608;1.458;2023-04-01T02:26:23;25.10;;;3.90;;
47659;SDS011;33403;43.608;1.458;2023-04-01T02:28:50;16.05;;;3.70;;
47659;SDS011;33403;43.608;1.458;2023-04-01T02:31:19;17.02;;;3.83;;
47659;SDS011;33403;43.608;1.458;2023-04-01T02:33:46;24.50;;;4.20;;
47659;SDS011;33403;43.608;1.458;2023-04-01T02:36:13;27.67;;;4.38;;
47659;SDS011;33403;43.608;1.458;2023-04-01T02:38:41;22.13;;;4.22;;
47659;SDS011;33403;43.608;1.458;2023-04-01T02:41:09;28.17;;;4.18;;
47659;SDS011;33403;43.608;1.458;2023-04-01T02:43:35;25.17;;;4.82;;
47659;SDS011;33403;43.608;1.458;2023-04-01T02:46:01;26.45;;;4.00;;
47659;SDS011;33403;43.608;1.458;2023-04-01T02:48:27;21.75;;;3.92;;
47659;SDS011;33403;43.608;1.458;2023-04-01T02:50:52;20.80;;;4.30;;
47659;SDS011;33403;43.608;1.458;2023-04-01T02:53:18;24.33;;;4.60;;
47659;SDS011;33403;43.608;1.458;2023-04-01T02:55:44;19.83;;;3.80;;
47659;SDS011;33403;43.608;1.458;2023-04-01T02:58:10;24.20;;;4.10;;
47659;SDS011;33403;43.608;1.458;2023-04-01T03:00:36;22.50;;;3.78;;
47659;SDS011;33403;43.608;1.458;2023-04-01T03:03:02;25.13;;;3.97;;
47659;SDS011;33403;43.608;1.458;2023-04-01T03:05:28;22.67;;;3.90;;
47659;SDS011;33403;43.608;1.458;2023-04-01T03:07:54;23.63;;;4.18;;
47659;SDS011;33403;43.608;1.458;2023-04-01T03:10:20;20.00;;;4.05;;
47659;SDS011;33403;43.608;1.458;2023-04-01T03:12:46;22.67;;;3.70;;
47659;SDS011;33403;43.608;1.458;2023-04-01T03:15:12;18.10;;;3.30;;
47659;SDS011;33403;43.608;1.458;2023-04-01T03:17:39;23.17;;;4.32;;
47659;SDS011;33403;43.608;1.458;2023-04-01T03:20:05;22.15;;;4.05;;
47659;SDS011;33403;43.608;1.458;2023-04-01T03:22:33;23.73;;;4.03;;
47659;SDS011;33403;43.608;1.458;2023-04-01T03:25:00;24.33;;;4.25;;
47659;SDS011;33403;43.608;1.458;2023-04-01T03:27:26;21.65;;;3.80;;
47659;SDS011;33403;43.608;1.458;2023-04-01T03:29:52;17.02;;;3.78;;
47659;SDS011;33403;43.608;1.458;2023-04-01T03:32:17;19.92;;;3.92;;
47659;SDS011;33403;43.608;1.458;2023-04-01T03:34:43;23.75;;;4.07;;
47659;SDS011;33403;43.608;1.458;2023-04-01T03:37:09;25.70;;;4.53;;
47659;SDS011;33403;43.608;1.458;2023-04-01T03:39:35;23.90;;;4.63;;
47659;SDS011;33403;43.608;1.458;2023-04-01T03:42:00;21.45;;;4.03;;
47659;SDS011;33403;43.608;1.458;2023-04-01T03:44:29;22.30;;;4.03;;
47659;SDS011;33403;43.608;1.458;2023-04-01T03:46:56;19.55;;;4.07;;
47659;SDS011;33403;43.608;1.458;2023-04-01T03:49:22;22.63;;;4.25;;
47659;SDS011;33403;43.608;1.458;2023-04-01T03:51:47;20.70;;;3.67;;
47659;SDS011;33403;43.608;1.458;2023-04-01T03:54:13;27.05;;;4.47;;
47659;SDS011;33403;43.608;1.458;2023-04-01T03:56:39;24.92;;;4.47;;
47659;SDS011;33403;43.608;1.458;2023-04-01T03:59:05;18.23;;;3.63;;
47659;SDS011;33403;43.608;1.458;2023-04-01T04:01:32;22.40;;;3.65;;
47659;SDS011;33403;43.608;1.458;2023-04-01T04:03:58;28.75;;;4.47;;
47659;SDS011;33403;43.608;1.458;2023-04-01T04:06:24;23.15;;;3.72;;
47659;SDS011;33403;43.608;1.458;2023-04-01T04:08:50;18.75;;;4.07;;
47659;SDS011;33403;43.608;1.458;2023-04-01T04:11:16;17.60;;;3.88;;
47659;SDS011;33403;43.608;1.458;2023-04-01T04:13:43;20.05;;;3.88;;
47659;SDS011;33403;43.608;1.458;2023-04-01T04:16:09;22.02;;;3.97;;
47659;SDS011;33403;43.608;1.458;2023-04-01T04:18:35;29.50;;;4.70;;
47659;SDS011;33403;43.608;1.458;2023-04-01T04:21:01;23.55;;;4.25;;
47659;SDS011;33403;43.608;1.458;2023-04-01T04:23:28;20.40;;;4.05;;
47659;SDS011;33403;43.608;1.458;2023-04-01T04:26:05;19.75;;;3.65;;
47659;SDS011;33403;43.608;1.458;2023-04-01T04:28:33;21.02;;;4.13;;
47659;SDS011;33403;43.608;1.458;2023-04-01T04:30:59;17.42;;;3.80;;
47659;SDS011;33403;43.608;1.458;2023-04-01T04:33:25;20.80;;;4.03;;
47659;SDS011;33403;43.608;1.458;2023-04-01T04:35:51;18.77;;;3.67;;
47659;SDS011;33403;43.608;1.458;2023-04-01T04:38:19;25.80;;;3.92;;
47659;SDS011;33403;43.608;1.458;2023-04-01T04:40:45;25.90;;;3.85;;
47659;SDS011;33403;43.608;1.458;2023-04-01T04:43:11;21.80;;;3.85;;
47659;SDS011;33403;43.608;1.458;2023-04-01T04:45:39;22.05;;;3.90;;
47659;SDS011;33403;43.608;1.458;2023-04-01T04:48:07;20.08;;;3.75;;
47659;SDS011;33403;43.608;1.458;2023-04-01T04:50:33;25.92;;;3.72;;
47659;SDS011;33403;43.608;1.458;2023-04-01T04:52:59;17.25;;;3.42;;
47659;SDS011;33403;43.608;1.458;2023-04-01T04:55:24;18.10;;;3.97;;
47659;SDS011;33403;43.608;1.458;2023-04-01T04:57:50;22.02;;;4.25;;
47659;SDS011;33403;43.608;1.458;2023-04-01T05:00:16;27.17;;;4.13;;
47659;SDS011;33403;43.608;1.458;2023-04-01T05:02:42;22.58;;;3.53;;
47659;SDS011;33403;43.608;1.458;2023-04-01T05:05:07;23.73;;;4.22;;
47659;SDS011;33403;43.608;1.458;2023-04-01T05:07:33;18.67;;;3.78;;
47659;SDS011;33403;43.608;1.458;2023-04-01T05:09:59;16.25;;;3.70;;
47659;SDS011;33403;43.608;1.458;2023-04-01T05:12:25;25.60;;;4.03;;
47659;SDS011;33403;43.608;1.458;2023-04-01T05:14:50;22.90;;;3.58;;
47659;SDS011;33403;43.608;1.458;2023-04-01T05:17:16;18.50;;;3.67;;
47659;SDS011;33403;43.608;1.458;2023-04-01T05:19:41;21.75;;;3.42;;
47659;SDS011;33403;43.608;1.458;2023-04-01T05:22:07;18.92;;;3.50;;
47659;SDS011;33403;43.608;1.458;2023-04-01T05:24:33;18.77;;;3.80;;
47659;SDS011;33403;43.608;1.458;2023-04-01T05:26:59;21.75;;;4.25;;
47659;SDS011;33403;43.608;1.458;2023-04-01T05:29:25;23.52;;;4.53;;
47659;SDS011;33403;43.608;1.458;2023-04-01T05:31:51;23.27;;;4.40;;
47659;SDS011;33403;43.608;1.458;2023-04-01T05:34:17;18.48;;;3.40;;
47659;SDS011;33403;43.608;1.458;2023-04-01T05:36:43;19.45;;;4.32;;
47659;SDS011;33403;43.608;1.458;2023-04-01T05:39:09;23.42;;;3.58;;
47659;SDS011;33403;43.608;1.458;2023-04-01T05:41:35;24.15;;;3.95;;
47659;SDS011;33403;43.608;1.458;2023-04-01T05:44:02;18.90;;;3.92;;
47659;SDS011;33403;43.608;1.458;2023-04-01T05:46:28;17.67;;;3.75;;
47659;SDS011;33403;43.608;1.458;2023-04-01T05:48:54;18.88;;;4.00;;
47659;SDS011;33403;43.608;1.458;2023-04-01T05:51:20;24.45;;;4.63;;
47659;SDS011;33403;43.608;1.458;2023-04-01T05:53:45;18.42;;;3.88;;
47659;SDS011;33403;43.608;1.458;2023-04-01T05:56:11;20.13;;;3.67;;
47659;SDS011;33403;43.608;1.458;2023-04-01T05:58:38;21.08;;;4.63;;
47659;SDS011;33403;43.608;1.458;2023-04-01T06:01:04;20.90;;;3.55;;
47659;SDS011;33403;43.608;1.458;2023-04-01T06:03:31;17.88;;;3.60;;
47659;SDS011;33403;43.608;1.458;2023-04-01T06:05:57;21.75;;;3.90;;
47659;SDS011;33403;43.608;1.458;2023-04-01T06:08:24;19.30;;;3.47;;
47659;SDS011;33403;43.608;1.458;2023-04-01T06:46:44;21.27;;;4.03;;
47659;SDS011;33403;43.608;1.458;2023-04-01T06:52:45;20.67;;;3.70;;
47659;SDS011;33403;43.608;1.458;2023-04-01T06:55:17;20.48;;;4.10;;
47659;SDS011;33403;43.608;1.458;2023-04-01T06:58:11;23.73;;;4.00;;
47659;SDS011;33403;43.608;1.458;2023-04-01T07:01:08;19.73;;;3.58;;
47659;SDS011;33403;43.608;1.458;2023-04-01T07:04:13;20.65;;;4.15;;
47659;SDS011;33403;43.608;1.458;2023-04-01T07:09:05;20.33;;;4.20;;
47659;SDS011;33403;43.608;1.458;2023-04-01T07:11:35;19.30;;;3.42;;
47659;SDS011;33403;43.608;1.458;2023-04-01T07:14:12;22.80;;;4.30;;
47659;SDS011;33403;43.608;1.458;2023-04-01T07:16:45;20.88;;;3.55;;
47659;SDS011;33403;43.608;1.458;2023-04-01T07:19:12;22.35;;;3.65;;
47659;SDS011;33403;43.608;1.458;2023-04-01T07:21:44;18.02;;;3.42;;
47659;SDS011;33403;43.608;1.458;2023-04-01T07:24:16;24.38;;;4.30;;
47659;SDS011;33403;43.608;1.458;2023-04-01T07:26:44;19.02;;;4.03;;
47659;SDS011;33403;43.608;1.458;2023-04-01T07:29:11;20.52;;;3.92;;
47659;SDS011;33403;43.608;1.458;2023-04-01T07:34:23;19.08;;;3.65;;
47659;SDS011;33403;43.608;1.458;2023-04-01T07:45:09;22.13;;;3.90;;
47659;SDS011;33403;43.608;1.458;2023-04-01T07:47:59;18.63;;;3.80;;
47659;SDS011;33403;43.608;1.458;2023-04-01T07:50:29;23.40;;;3.90;;
47659;SDS011;33403;43.608;1.458;2023-04-01T08:06:45;18.38;;;3.60;;
47659;SDS011;33403;43.608;1.458;2023-04-01T08:09:33;24.52;;;3.97;;
47659;SDS011;33403;43.608;1.458;2023-04-01T08:17:53;19.15;;;3.55;;
47659;SDS011;33403;43.608;1.458;2023-04-01T08:20:37;21.08;;;3.90;;
47659;SDS011;33403;43.608;1.458;2023-04-01T08:23:27;19.73;;;3.80;;
47659;SDS011;33403;43.608;1.458;2023-04-01T08:34:30;22.02;;;3.70;;
47659;SDS011;33403;43.608;1.458;2023-04-01T08:37:05;22.40;;;4.07;;
47659;SDS011;33403;43.608;1.458;2023-04-01T08:39:40;24.17;;;3.83;;
47659;SDS011;33403;43.608;1.458;2023-04-01T08:42:31;16.73;;;3.50;;
47659;SDS011;33403;43.608;1.458;2023-04-01T08:48:12;14.55;;;3.45;;
47659;SDS011;33403;43.608;1.458;2023-04-01T08:56:59;16.65;;;3.22;;
47659;SDS011;33403;43.608;1.458;2023-04-01T09:02:58;17.73;;;3.35;;
47659;SDS011;33403;43.608;1.458;2023-04-01T09:27:43;9.38;;;2.30;;
47659;SDS011;33403;43.608;1.458;2023-04-01T09:41:17;6.40;;;1.73;;
47659;SDS011;33403;43.608;1.458;2023-04-01T09:43:57;7.03;;;1.58;;
47659;SDS011;33403;43.608;1.458;2023-04-01T09:52:51;11.25;;;2.25;;
47659;SDS011;33403;43.608;1.458;2023-04-01T10:01:25;10.40;;;2.67;;
47659;SDS011;33403;43.608;1.458;2023-04-01T10:04:27;10.40;;;2.50;;
47659;SDS011;33403;43.608;1.458;2023-04-01T10:15:39;7.93;;;2.25;;
47659;SDS011;33403;43.608;1.458;2023-04-01T10:18:31;6.03;;;1.70;;
47659;SDS011;33403;43.608;1.458;2023-04-01T10:21:22;10.75;;;1.73;;
47659;SDS011;33403;43.608;1.458;2023-04-01T10:24:14;7.55;;;1.95;;
47659;SDS011;33403;43.608;1.458;2023-04-01T11:00:55;8.60;;;2.20;;
47659;SDS011;33403;43.608;1.458;2023-04-01T11:23:33;8.15;;;1.77;;
47659;SDS011;33403;43.608;1.458;2023-04-01T11:31:55;12.93;;;2.53;;
47659;SDS011;33403;43.608;1.458;2023-04-01T11:42:54;6.90;;;2.08;;
47659;SDS011;33403;43.608;1.458;2023-04-01T12:07:10;8.98;;;1.95;;
47659;SDS011;33403;43.608;1.458;2023-04-01T12:13:13;6.28;;;1.63;;
47659;SDS011;33403;43.608;1.458;2023-04-01T12:16:08;6.47;;;2.22;;
47659;SDS011;33403;43.608;1.458;2023-04-01T12:32:55;7.72;;;1.67;;
47659;SDS011;33403;43.608;1.458;2023-04-01T12:44:23;2.90;;;1.40;;
47659;SDS011;33403;43.608;1.458;2023-04-01T12:47:23;6.68;;;1.75;;
47659;SDS011;33403;43.608;1.458;2023-04-01T12:58:03;6.88;;;1.70;;
47659;SDS011;33403;43.608;1.458;2023-04-01T13:01:02;5.88;;;1.50;;
47659;SDS011;33403;43.608;1.458;2023-04-01T13:06:52;7.10;;;1.52;;
47659;SDS011;33403;43.608;1.458;2023-04-01T13:09:45;7.60;;;2.45;;
47659;SDS011;33403;43.608;1.458;2023-04-01T13:22:58;4.00;;;1.40;;
47659;SDS011;33403;43.608;1.458;2023-04-01T13:33:42;5.15;;;1.45;;
47659;SDS011;33403;43.608;1.458;2023-04-01T13:36:26;3.97;;;1.20;;
47659;SDS011;33403;43.608;1.458;2023-04-01T13:44:43;4.38;;;1.40;;
47659;SDS011;33403;43.608;1.458;2023-04-01T13:50:31;5.00;;;1.67;;
47659;SDS011;33403;43.608;1.458;2023-04-01T13:58:57;3.88;;;1.52;;
47659;SDS011;33403;43.608;1.458;2023-04-01T14:10:06;8.77;;;1.83;;
47659;SDS011;33403;43.608;1.458;2023-04-01T14:12:42;5.70;;;1.85;;
47659;SDS011;33403;43.608;1.458;2023-04-01T14:15:23;7.32;;;1.98;;
47659;SDS011;33403;43.608;1.458;2023-04-01T14:26:50;7.43;;;2.45;;
47659;SDS011;33403;43.608;1.458;2023-04-01T14:37:30;4.75;;;1.70;;
47659;SDS011;33403;43.608;1.458;2023-04-01T14:59:04;6.43;;;2.22;;
47659;SDS011;33403;43.608;1.458;2023-04-01T15:12:11;5.10;;;1.30;;
47659;SDS011;33403;43.608;1.458;2023-04-01T15:39:16;6.53;;;2.08;;
47659;SDS011;33403;43.608;1.458;2023-04-01T15:44:48;4.93;;;2.17;;
47659;SDS011;33403;43.608;1.458;2023-04-01T16:14:49;6.13;;;1.73;;
47659;SDS011;33403;43.608;1.458;2023-04-01T16:20:18;5.85;;;1.88;;
47659;SDS011;33403;43.608;1.458;2023-04-01T16:30:57;4.78;;;1.80;;
47659;SDS011;33403;43.608;1.458;2023-04-01T16:41:35;5.00;;;1.52;;
47659;SDS011;33403;43.608;1.458;2023-04-01T16:46:44;6.32;;;1.80;;
47659;SDS011;33403;43.608;1.458;2023-04-01T16:49:33;6.18;;;1.60;;
47659;SDS011;33403;43.608;1.458;2023-04-01T16:57:12;5.55;;;1.75;;
47659;SDS011;33403;43.608;1.458;2023-04-01T17:03:08;3.88;;;1.50;;
47659;SDS011;33403;43.608;1.458;2023-04-01T17:29:29;4.35;;;2.20;;
47659;SDS011;33403;43.608;1.458;2023-04-01T17:35:22;10.80;;;2.35;;
47659;SDS011;33403;43.608;1.458;2023-04-01T17:43:12;5.20;;;2.10;;
47659;SDS011;33403;43.608;1.458;2023-04-01T17:46:21;4.10;;;1.80;;
47659;SDS011;33403;43.608;1.458;2023-04-01T18:13:54;7.70;;;2.50;;
47659;SDS011;33403;43.608;1.458;2023-04-01T18:19:15;6.85;;;2.45;;
47659;SDS011;33403;43.608;1.458;2023-04-01T18:27:41;6.35;;;2.85;;
47659;SDS011;33403;43.608;1.458;2023-04-01T18:40:32;6.72;;;2.67;;
47659;SDS011;33403;43.608;1.458;2023-04-01T18:56:40;6.03;;;2.80;;
47659;SDS011;33403;43.608;1.458;2023-04-01T18:59:10;8.85;;;3.20;;
47659;SDS011;33403;43.608;1.458;2023-04-01T19:05:03;8.23;;;2.40;;
47659;SDS011;33403;43.608;1.458;2023-04-01T19:07:40;7.75;;;3.13;;
47659;SDS011;33403;43.608;1.458;2023-04-01T19:26:29;5.53;;;2.85;;
47659;SDS011;33403;43.608;1.458;2023-04-01T19:37:21;9.05;;;3.15;;
47659;SDS011;33403;43.608;1.458;2023-04-01T19:40:02;7.13;;;3.28;;
47659;SDS011;33403;43.608;1.458;2023-04-01T19:42:46;10.82;;;4.55;;
47659;SDS011;33403;43.608;1.458;2023-04-01T19:45:44;7.00;;;2.83;;
47659;SDS011;33403;43.608;1.458;2023-04-01T19:51:18;7.43;;;3.10;;
47659;SDS011;33403;43.608;1.458;2023-04-01T19:56:51;7.18;;;2.90;;
47659;SDS011;33403;43.608;1.458;2023-04-01T19:59:43;6.75;;;2.80;;
47659;SDS011;33403;43.608;1.458;2023-04-01T20:05:51;7.78;;;3.08;;
47659;SDS011;33403;43.608;1.458;2023-04-01T20:08:27;7.38;;;2.95;;
47659;SDS011;33403;43.608;1.458;2023-04-01T20:16:53;6.93;;;2.50;;
47659;SDS011;33403;43.608;1.458;2023-04-01T20:19:42;8.38;;;2.85;;
47659;SDS011;33403;43.608;1.458;2023-04-01T20:24:53;6.85;;;3.20;;
47659;SDS011;33403;43.608;1.458;2023-04-01T20:27:35;8.02;;;2.88;;
47659;SDS011;33403;43.608;1.458;2023-04-01T20:33:16;6.35;;;2.88;;
47659;SDS011;33403;43.608;1.458;2023-04-01T20:42:05;6.32;;;2.40;;
47659;SDS011;33403;43.608;1.458;2023-04-01T20:53:20;10.75;;;3.25;;
47659;SDS011;33403;43.608;1.458;2023-04-01T20:58:58;7.25;;;2.50;;
47659;SDS011;33403;43.608;1.458;2023-04-01T21:22:02;8.95;;;2.53;;
47659;SDS011;33403;43.608;1.458;2023-04-01T21:24:56;9.25;;;2.50;;
47659;SDS011;33403;43.608;1.458;2023-04-01T21:39:01;11.73;;;2.72;;
47659;SDS011;33403;43.608;1.458;2023-04-01T21:42:29;8.95;;;2.70;;
47659;SDS011;33403;43.608;1.458;2023-04-01T21:58:30;8.75;;;2.80;;
47659;SDS011;33403;43.608;1.458;2023-04-01T22:01:30;10.90;;;2.42;;
47659;SDS011;33403;43.608;1.458;2023-04-01T22:12:54;10.70;;;2.70;;
47659;SDS011;33403;43.608;1.458;2023-04-01T22:15:48;11.00;;;2.70;;
47659;SDS011;33403;43.608;1.458;2023-04-01T22:18:36;8.02;;;2.10;;
47659;SDS011;33403;43.608;1.458;2023-04-01T22:31:15;9.77;;;2.07;;
47659;SDS011;33403;43.608;1.458;2023-04-01T22:47:30;8.23;;;2.20;;
47659;SDS011;33403;43.608;1.458;2023-04-01T22:52:31;5.33;;;2.13;;
47659;SDS011;33403;43.608;1.458;2023-04-01T23:00:37;10.20;;;2.20;;
47659;SDS011;33403;43.608;1.458;2023-04-01T23:03:09;7.37;;;2.40;;
47659;SDS011;33403;43.608;1.458;2023-04-01T23:05:41;8.55;;;2.40;;
47659;SDS011;33403;43.608;1.458;2023-04-01T23:11:14;10.43;;;2.70;;
47659;SDS011;33403;43.608;1.458;2023-04-01T23:13:46;8.43;;;2.30;;
47659;SDS011;33403;43.608;1.458;2023-04-01T23:16:18;7.50;;;2.40;;
47659;SDS011;33403;43.608;1.458;2023-04-01T23:21:46;6.65;;;2.00;;
47659;SDS011;33403;43.608;1.458;2023-04-01T23:33:26;8.17;;;2.40;;
47659;SDS011;33403;43.608;1.458;2023-04-01T23:38:39;8.30;;;2.30;;
47659;SDS011;33403;43.608;1.458;2023-04-01T23:41:06;8.80;;;2.37;;
47659;SDS011;33403;43.608;1.458;2023-04-01T23:43:42;9.90;;;2.27;;
47659;SDS011;33403;43.608;1.458;2023-04-01T23:46:08;5.13;;;2.10;;
47659;SDS011;33403;43.608;1.458;2023-04-01T23:51:10;9.75;;;2.20;;
47659;SDS011;33403;43.608;1.458;2023-04-01T23:53:43;6.90;;;1.90;;
47659;SDS011;33403;43.608;1.458;2023-04-01T23:56:11;10.90;;;2.10;;
